sensor_id;sensor_type;location;lat;lon;timestamp;temperature;humidity
67157;SHT31;54086;50.126;8.710;2023-05-07T00:02:21;16.61;79.09
67157;SHT31;54086;50.126;8.710;2023-05-07T00:04:47;16.52;79.47
67157;SHT31;54086;50.126;8.710;2023-05-07T00:07:13;16.59;79.42
67157;SHT31;54086;50.126;8.710;2023-05-07T00:09:38;16.65;79.07
67157;SHT31;54086;50.126;8.710;2023-05-07T00:12:05;16.44;79.46
67157;SHT31;54086;50.126;8.710;2023-05-07T00:14:30;16.57;79.46
67157;SHT31;54086;50.126;8.710;2023-05-07T00:16:56;16.59;79.40
67157;SHT31;54086;50.126;8.710;2023-05-07T00:19:21;16.54;79.40
67157;SHT31;54086;50.126;8.710;2023-05-07T00:21:47;16.61;79.14
67157;SHT31;54086;50.126;8.710;2023-05-07T00:24:12;16.52;79.38
67157;SHT31;54086;50.126;8.710;2023-05-07T00:26:37;16.60;79.33
67157;SHT31;54086;50.126;8.710;2023-05-07T00:29:03;16.60;79.21
67157;SHT31;54086;50.126;8.710;2023-05-07T00:31:28;16.57;79.20
67157;SHT31;54086;50.126;8.710;2023-05-07T00:33:54;16.57;79.27
67157;SHT31;54086;50.126;8.710;2023-05-07T00:36:19;16.47;79.47
67157;SHT31;54086;50.126;8.710;2023-05-07T00:38:45;16.49;79.38
67157;SHT31;54086;50.126;8.710;2023-05-07T00:41:10;16.54;79.29
67157;SHT31;54086;50.126;8.710;2023-05-07T00:43:35;16.56;79.13
67157;SHT31;54086;50.126;8.710;2023-05-07T00:46:01;16.53;79.22
67157;SHT31;54086;50.126;8.710;2023-05-07T00:48:27;16.54;79.29
67157;SHT31;54086;50.126;8.710;2023-05-07T00:50:52;16.52;79.44
67157;SHT31;54086;50.126;8.710;2023-05-07T00:53:18;16.60;79.38
67157;SHT31;54086;50.126;8.710;2023-05-07T00:55:44;16.60;79.49
67157;SHT31;54086;50.126;8.710;2023-05-07T00:58:10;16.53;79.79
67157;SHT31;54086;50.126;8.710;2023-05-07T01:00:35;16.47;79.91
67157;SHT31;54086;50.126;8.710;2023-05-07T01:03:01;16.53;79.61
67157;SHT31;54086;50.126;8.710;2023-05-07T01:05:27;16.42;79.74
67157;SHT31;54086;50.126;8.710;2023-05-07T01:07:54;16.34;79.87
67157;SHT31;54086;50.126;8.710;2023-05-07T01:10:21;16.42;79.96
67157;SHT31;54086;50.126;8.710;2023-05-07T01:12:48;16.40;79.68
67157;SHT31;54086;50.126;8.710;2023-05-07T01:15:14;16.46;79.72
67157;SHT31;54086;50.126;8.710;2023-05-07T01:17:41;16.53;79.51
67157;SHT31;54086;50.126;8.710;2023-05-07T01:20:09;16.39;79.71
67157;SHT31;54086;50.126;8.710;2023-05-07T01:22:37;16.36;79.81
67157;SHT31;54086;50.126;8.710;2023-05-07T01:25:04;16.34;79.95
67157;SHT31;54086;50.126;8.710;2023-05-07T01:27:29;16.34;79.84
67157;SHT31;54086;50.126;8.710;2023-05-07T01:29:55;16.33;80.02
67157;SHT31;54086;50.126;8.710;2023-05-07T01:32:40;16.40;79.67
67157;SHT31;54086;50.126;8.710;2023-05-07T01:35:09;16.39;79.53
67157;SHT31;54086;50.126;8.710;2023-05-07T01:37:35;16.49;79.45
67157;SHT31;54086;50.126;8.710;2023-05-07T01:40:01;16.57;79.19
67157;SHT31;54086;50.126;8.710;2023-05-07T01:42:29;16.60;79.13
67157;SHT31;54086;50.126;8.710;2023-05-07T01:44:54;16.54;79.34
67157;SHT31;54086;50.126;8.710;2023-05-07T01:47:20;16.53;79.33
67157;SHT31;54086;50.126;8.710;2023-05-07T01:49:46;16.47;79.48
67157;SHT31;54086;50.126;8.710;2023-05-07T01:52:13;16.50;79.54
67157;SHT31;54086;50.126;8.710;2023-05-07T01:54:39;16.46;79.68
67157;SHT31;54086;50.126;8.710;2023-05-07T01:57:04;16.42;79.87
67157;SHT31;54086;50.126;8.710;2023-05-07T01:59:30;16.44;79.90
67157;SHT31;54086;50.126;8.710;2023-05-07T02:01:56;16.47;79.84
67157;SHT31;54086;50.126;8.710;2023-05-07T02:04:21;16.37;80.08
67157;SHT31;54086;50.126;8.710;2023-05-07T02:06:47;16.36;80.05
67157;SHT31;54086;50.126;8.710;2023-05-07T02:09:13;16.24;80.43
67157;SHT31;54086;50.126;8.710;2023-05-07T02:11:40;16.32;80.31
67157;SHT31;54086;50.126;8.710;2023-05-07T02:14:05;16.42;80.05
67157;SHT31;54086;50.126;8.710;2023-05-07T02:16:31;16.33;80.28
67157;SHT31;54086;50.126;8.710;2023-05-07T02:18:56;16.29;80.29
67157;SHT31;54086;50.126;8.710;2023-05-07T02:21:23;16.32;80.39
67157;SHT31;54086;50.126;8.710;2023-05-07T02:23:48;16.09;80.89
67157;SHT31;54086;50.126;8.710;2023-05-07T02:26:14;16.09;80.92
67157;SHT31;54086;50.126;8.710;2023-05-07T02:28:39;16.03;81.06
67157;SHT31;54086;50.126;8.710;2023-05-07T02:31:05;16.12;80.83
67157;SHT31;54086;50.126;8.710;2023-05-07T02:33:31;16.08;80.70
67157;SHT31;54086;50.126;8.710;2023-05-07T02:35:56;16.17;80.38
67157;SHT31;54086;50.126;8.710;2023-05-07T02:38:22;16.19;80.18
67157;SHT31;54086;50.126;8.710;2023-05-07T02:40:48;16.19;80.18
67157;SHT31;54086;50.126;8.710;2023-05-07T02:43:16;16.15;80.16
67157;SHT31;54086;50.126;8.710;2023-05-07T02:45:42;16.12;80.19
67157;SHT31;54086;50.126;8.710;2023-05-07T02:48:08;16.08;80.25
67157;SHT31;54086;50.126;8.710;2023-05-07T02:50:33;16.16;80.04
67157;SHT31;54086;50.126;8.710;2023-05-07T02:52:59;15.99;80.34
67157;SHT31;54086;50.126;8.710;2023-05-07T02:55:24;15.93;80.42
67157;SHT31;54086;50.126;8.710;2023-05-07T02:57:50;15.92;80.53
67157;SHT31;54086;50.126;8.710;2023-05-07T03:00:17;15.91;80.80
67157;SHT31;54086;50.126;8.710;2023-05-07T03:02:43;16.01;80.54
67157;SHT31;54086;50.126;8.710;2023-05-07T03:05:15;15.89;80.75
67157;SHT31;54086;50.126;8.710;2023-05-07T03:07:40;15.95;80.38
67157;SHT31;54086;50.126;8.710;2023-05-07T03:10:12;15.93;80.35
67157;SHT31;54086;50.126;8.710;2023-05-07T03:12:37;15.92;80.34
67157;SHT31;54086;50.126;8.710;2023-05-07T03:15:03;15.93;79.95
67157;SHT31;54086;50.126;8.710;2023-05-07T03:17:30;15.98;79.82
67157;SHT31;54086;50.126;8.710;2023-05-07T03:19:56;15.99;79.74
67157;SHT31;54086;50.126;8.710;2023-05-07T03:22:21;15.98;79.78
67157;SHT31;54086;50.126;8.710;2023-05-07T03:24:46;15.99;79.49
67157;SHT31;54086;50.126;8.710;2023-05-07T03:27:12;16.09;79.44
67157;SHT31;54086;50.126;8.710;2023-05-07T03:29:37;16.12;79.25
67157;SHT31;54086;50.126;8.710;2023-05-07T03:32:03;16.16;78.98
67157;SHT31;54086;50.126;8.710;2023-05-07T03:34:29;16.22;78.82
67157;SHT31;54086;50.126;8.710;2023-05-07T03:36:54;16.23;78.90
67157;SHT31;54086;50.126;8.710;2023-05-07T03:39:21;16.26;79.10
67157;SHT31;54086;50.126;8.710;2023-05-07T03:41:47;16.27;79.35
67157;SHT31;54086;50.126;8.710;2023-05-07T03:44:12;16.24;79.52
67157;SHT31;54086;50.126;8.710;2023-05-07T03:46:38;16.23;79.78
67157;SHT31;54086;50.126;8.710;2023-05-07T03:49:04;16.10;80.23
67157;SHT31;54086;50.126;8.710;2023-05-07T03:51:30;16.09;80.57
67157;SHT31;54086;50.126;8.710;2023-05-07T03:53:55;15.85;81.40
67157;SHT31;54086;50.126;8.710;2023-05-07T03:56:22;15.75;81.78
67157;SHT31;54086;50.126;8.710;2023-05-07T03:58:51;15.65;82.12
67157;SHT31;54086;50.126;8.710;2023-05-07T04:01:17;15.64;82.22
67157;SHT31;54086;50.126;8.710;2023-05-07T04:03:42;15.62;82.27
67157;SHT31;54086;50.126;8.710;2023-05-07T04:06:07;15.57;82.51
67157;SHT31;54086;50.126;8.710;2023-05-07T04:08:33;15.59;82.57
67157;SHT31;54086;50.126;8.710;2023-05-07T04:10:58;15.65;82.38
67157;SHT31;54086;50.126;8.710;2023-05-07T04:13:25;15.64;82.44
67157;SHT31;54086;50.126;8.710;2023-05-07T04:15:51;15.62;82.56
67157;SHT31;54086;50.126;8.710;2023-05-07T04:18:16;15.62;82.74
67157;SHT31;54086;50.126;8.710;2023-05-07T04:20:42;15.59;82.58
67157;SHT31;54086;50.126;8.710;2023-05-07T04:23:07;15.61;82.44
67157;SHT31;54086;50.126;8.710;2023-05-07T04:25:33;15.54;82.52
67157;SHT31;54086;50.126;8.710;2023-05-07T04:27:59;15.48;82.74
67157;SHT31;54086;50.126;8.710;2023-05-07T04:30:24;15.55;82.58
67157;SHT31;54086;50.126;8.710;2023-05-07T04:32:50;15.62;82.29
67157;SHT31;54086;50.126;8.710;2023-05-07T04:35:16;15.66;82.02
67157;SHT31;54086;50.126;8.710;2023-05-07T04:37:41;15.77;81.82
67157;SHT31;54086;50.126;8.710;2023-05-07T04:40:08;15.84;81.44
67157;SHT31;54086;50.126;8.710;2023-05-07T04:42:34;15.85;81.21
67157;SHT31;54086;50.126;8.710;2023-05-07T04:45:01;15.89;81.22
67157;SHT31;54086;50.126;8.710;2023-05-07T04:47:27;15.92;81.13
67157;SHT31;54086;50.126;8.710;2023-05-07T04:49:52;15.96;81.05
67157;SHT31;54086;50.126;8.710;2023-05-07T04:52:17;16.03;80.94
67157;SHT31;54086;50.126;8.710;2023-05-07T04:54:43;15.93;81.22
67157;SHT31;54086;50.126;8.710;2023-05-07T04:57:08;15.99;81.26
67157;SHT31;54086;50.126;8.710;2023-05-07T04:59:34;16.02;81.31
67157;SHT31;54086;50.126;8.710;2023-05-07T05:01:59;16.03;81.61
67157;SHT31;54086;50.126;8.710;2023-05-07T05:04:25;16.02;81.40
67157;SHT31;54086;50.126;8.710;2023-05-07T05:06:50;15.82;81.96
67157;SHT31;54086;50.126;8.710;2023-05-07T05:09:16;15.66;82.09
67157;SHT31;54086;50.126;8.710;2023-05-07T05:11:41;15.72;81.71
67157;SHT31;54086;50.126;8.710;2023-05-07T05:14:07;15.71;81.61
67157;SHT31;54086;50.126;8.710;2023-05-07T05:16:32;15.78;81.57
67157;SHT31;54086;50.126;8.710;2023-05-07T05:18:58;15.77;81.77
67157;SHT31;54086;50.126;8.710;2023-05-07T05:21:23;15.77;81.45
67157;SHT31;54086;50.126;8.710;2023-05-07T05:23:49;15.77;81.55
67157;SHT31;54086;50.126;8.710;2023-05-07T05:26:14;15.88;80.96
67157;SHT31;54086;50.126;8.710;2023-05-07T05:28:40;15.92;80.88
67157;SHT31;54086;50.126;8.710;2023-05-07T05:31:05;15.92;80.49
67157;SHT31;54086;50.126;8.710;2023-05-07T05:33:31;15.92;80.35
67157;SHT31;54086;50.126;8.710;2023-05-07T05:35:56;15.98;80.09
67157;SHT31;54086;50.126;8.710;2023-05-07T05:38:22;16.19;79.17
67157;SHT31;54086;50.126;8.710;2023-05-07T05:40:49;16.37;78.64
67157;SHT31;54086;50.126;8.710;2023-05-07T05:43:14;16.30;79.37
67157;SHT31;54086;50.126;8.710;2023-05-07T05:45:40;16.42;79.17
67157;SHT31;54086;50.126;8.710;2023-05-07T05:48:06;16.39;79.06
67157;SHT31;54086;50.126;8.710;2023-05-07T05:50:31;16.34;79.63
67157;SHT31;54086;50.126;8.710;2023-05-07T05:52:58;16.40;79.64
67157;SHT31;54086;50.126;8.710;2023-05-07T05:55:23;16.42;79.99
67157;SHT31;54086;50.126;8.710;2023-05-07T05:57:50;16.53;80.06
67157;SHT31;54086;50.126;8.710;2023-05-07T06:00:16;16.54;79.95
67157;SHT31;54086;50.126;8.710;2023-05-07T06:02:42;16.47;80.12
67157;SHT31;54086;50.126;8.710;2023-05-07T06:05:08;16.52;80.34
67157;SHT31;54086;50.126;8.710;2023-05-07T06:07:33;16.52;80.47
67157;SHT31;54086;50.126;8.710;2023-05-07T06:10:00;16.63;79.95
67157;SHT31;54086;50.126;8.710;2023-05-07T06:12:25;16.42;80.12
67157;SHT31;54086;50.126;8.710;2023-05-07T06:14:51;16.67;79.71
67157;SHT31;54086;50.126;8.710;2023-05-07T06:17:16;16.77;79.53
67157;SHT31;54086;50.126;8.710;2023-05-07T06:19:41;16.64;79.58
67157;SHT31;54086;50.126;8.710;2023-05-07T06:22:07;16.78;79.48
67157;SHT31;54086;50.126;8.710;2023-05-07T06:24:32;16.96;78.90
67157;SHT31;54086;50.126;8.710;2023-05-07T06:26:58;16.91;79.02
67157;SHT31;54086;50.126;8.710;2023-05-07T06:29:24;16.96;78.89
67157;SHT31;54086;50.126;8.710;2023-05-07T06:31:52;17.02;78.47
67157;SHT31;54086;50.126;8.710;2023-05-07T06:34:17;17.02;78.25
67157;SHT31;54086;50.126;8.710;2023-05-07T06:36:43;16.92;77.84
67157;SHT31;54086;50.126;8.710;2023-05-07T06:39:08;17.01;77.24
67157;SHT31;54086;50.126;8.710;2023-05-07T06:41:34;17.10;76.97
67157;SHT31;54086;50.126;8.710;2023-05-07T06:44:01;17.26;76.30
67157;SHT31;54086;50.126;8.710;2023-05-07T06:46:27;17.25;76.24
67157;SHT31;54086;50.126;8.710;2023-05-07T06:48:53;17.32;76.17
67157;SHT31;54086;50.126;8.710;2023-05-07T06:51:18;17.31;75.74
67157;SHT31;54086;50.126;8.710;2023-05-07T06:53:44;17.15;75.87
67157;SHT31;54086;50.126;8.710;2023-05-07T06:56:09;17.29;75.54
67157;SHT31;54086;50.126;8.710;2023-05-07T06:58:35;17.28;75.61
67157;SHT31;54086;50.126;8.710;2023-05-07T07:01:00;17.28;75.28
67157;SHT31;54086;50.126;8.710;2023-05-07T07:03:26;17.39;75.37
67157;SHT31;54086;50.126;8.710;2023-05-07T07:05:53;17.43;75.62
67157;SHT31;54086;50.126;8.710;2023-05-07T07:08:18;17.42;75.74
67157;SHT31;54086;50.126;8.710;2023-05-07T07:10:46;17.59;75.27
67157;SHT31;54086;50.126;8.710;2023-05-07T07:13:11;17.82;74.84
67157;SHT31;54086;50.126;8.710;2023-05-07T07:15:37;17.94;74.69
67157;SHT31;54086;50.126;8.710;2023-05-07T07:18:02;18.08;74.38
67157;SHT31;54086;50.126;8.710;2023-05-07T07:20:28;18.00;74.57
67157;SHT31;54086;50.126;8.710;2023-05-07T07:22:53;18.04;74.14
67157;SHT31;54086;50.126;8.710;2023-05-07T07:25:20;17.96;73.80
67157;SHT31;54086;50.126;8.710;2023-05-07T07:27:45;18.13;73.03
67157;SHT31;54086;50.126;8.710;2023-05-07T07:30:11;18.03;73.72
67157;SHT31;54086;50.126;8.710;2023-05-07T07:32:38;18.10;73.59
67157;SHT31;54086;50.126;8.710;2023-05-07T07:35:03;18.27;72.95
67157;SHT31;54086;50.126;8.710;2023-05-07T07:37:29;18.42;72.26
67157;SHT31;54086;50.126;8.710;2023-05-07T07:39:55;18.47;72.12
67157;SHT31;54086;50.126;8.710;2023-05-07T07:42:21;18.49;72.00
67157;SHT31;54086;50.126;8.710;2023-05-07T07:44:46;18.61;71.77
67157;SHT31;54086;50.126;8.710;2023-05-07T07:47:11;18.81;70.39
67157;SHT31;54086;50.126;8.710;2023-05-07T07:49:37;18.79;70.24
67157;SHT31;54086;50.126;8.710;2023-05-07T07:52:02;18.71;70.03
67157;SHT31;54086;50.126;8.710;2023-05-07T07:54:28;18.44;69.42
67157;SHT31;54086;50.126;8.710;2023-05-07T07:56:54;18.68;69.07
67157;SHT31;54086;50.126;8.710;2023-05-07T07:59:19;18.76;68.90
67157;SHT31;54086;50.126;8.710;2023-05-07T08:01:46;19.03;68.08
67157;SHT31;54086;50.126;8.710;2023-05-07T08:04:13;18.85;68.07
67157;SHT31;54086;50.126;8.710;2023-05-07T08:06:38;18.52;68.94
67157;SHT31;54086;50.126;8.710;2023-05-07T08:09:04;18.56;68.95
67157;SHT31;54086;50.126;8.710;2023-05-07T08:11:29;18.71;69.00
67157;SHT31;54086;50.126;8.710;2023-05-07T08:13:55;19.04;67.86
67157;SHT31;54086;50.126;8.710;2023-05-07T08:16:21;19.28;67.43
67157;SHT31;54086;50.126;8.710;2023-05-07T08:18:46;19.20;67.85
67157;SHT31;54086;50.126;8.710;2023-05-07T08:21:12;19.09;68.48
67157;SHT31;54086;50.126;8.710;2023-05-07T08:23:37;19.23;68.35
67157;SHT31;54086;50.126;8.710;2023-05-07T08:26:03;19.16;68.08
67157;SHT31;54086;50.126;8.710;2023-05-07T08:28:29;19.00;68.24
67157;SHT31;54086;50.126;8.710;2023-05-07T08:30:54;19.00;68.44
67157;SHT31;54086;50.126;8.710;2023-05-07T08:33:21;19.07;68.51
67157;SHT31;54086;50.126;8.710;2023-05-07T08:35:47;19.07;68.38
67157;SHT31;54086;50.126;8.710;2023-05-07T08:38:12;19.30;67.90
67157;SHT31;54086;50.126;8.710;2023-05-07T08:40:39;19.09;68.40
67157;SHT31;54086;50.126;8.710;2023-05-07T08:43:06;19.21;68.29
67157;SHT31;54086;50.126;8.710;2023-05-07T08:45:34;19.33;68.27
67157;SHT31;54086;50.126;8.710;2023-05-07T08:48:02;19.68;67.02
67157;SHT31;54086;50.126;8.710;2023-05-07T08:50:29;19.77;66.91
67157;SHT31;54086;50.126;8.710;2023-05-07T08:52:55;19.64;67.33
67157;SHT31;54086;50.126;8.710;2023-05-07T08:55:22;19.35;67.77
67157;SHT31;54086;50.126;8.710;2023-05-07T08:57:50;19.77;66.75
67157;SHT31;54086;50.126;8.710;2023-05-07T09:00:17;19.82;66.89
67157;SHT31;54086;50.126;8.710;2023-05-07T09:02:43;19.81;67.07
67157;SHT31;54086;50.126;8.710;2023-05-07T09:05:09;19.93;66.72
67157;SHT31;54086;50.126;8.710;2023-05-07T09:07:34;19.93;66.70
67157;SHT31;54086;50.126;8.710;2023-05-07T09:10:05;20.12;66.22
67157;SHT31;54086;50.126;8.710;2023-05-07T09:12:31;20.16;65.51
67157;SHT31;54086;50.126;8.710;2023-05-07T09:14:56;20.20;65.53
67157;SHT31;54086;50.126;8.710;2023-05-07T09:17:22;20.25;65.98
67157;SHT31;54086;50.126;8.710;2023-05-07T09:19:47;20.08;66.07
67157;SHT31;54086;50.126;8.710;2023-05-07T09:22:13;20.25;65.48
67157;SHT31;54086;50.126;8.710;2023-05-07T09:24:40;20.39;65.02
67157;SHT31;54086;50.126;8.710;2023-05-07T09:27:07;20.73;65.08
67157;SHT31;54086;50.126;8.710;2023-05-07T09:29:34;20.87;64.18
67157;SHT31;54086;50.126;8.710;2023-05-07T09:32:07;20.61;64.95
67157;SHT31;54086;50.126;8.710;2023-05-07T09:34:33;20.70;64.30
67157;SHT31;54086;50.126;8.710;2023-05-07T09:36:59;20.63;64.36
67157;SHT31;54086;50.126;8.710;2023-05-07T09:39:25;20.61;65.10
67157;SHT31;54086;50.126;8.710;2023-05-07T09:41:51;21.01;64.71
67157;SHT31;54086;50.126;8.710;2023-05-07T09:44:21;21.24;63.17
67157;SHT31;54086;50.126;8.710;2023-05-07T09:46:52;21.02;63.63
67157;SHT31;54086;50.126;8.710;2023-05-07T09:49:22;21.98;62.00
67157;SHT31;54086;50.126;8.710;2023-05-07T09:51:52;21.87;61.70
67157;SHT31;54086;50.126;8.710;2023-05-07T09:54:18;22.14;61.73
67157;SHT31;54086;50.126;8.710;2023-05-07T09:56:51;22.25;61.47
67157;SHT31;54086;50.126;8.710;2023-05-07T09:59:18;22.47;61.66
67157;SHT31;54086;50.126;8.710;2023-05-07T10:01:45;21.97;61.80
67157;SHT31;54086;50.126;8.710;2023-05-07T10:04:11;22.92;60.52
67157;SHT31;54086;50.126;8.710;2023-05-07T10:06:37;23.16;60.24
67157;SHT31;54086;50.126;8.710;2023-05-07T10:09:03;23.10;60.22
67157;SHT31;54086;50.126;8.710;2023-05-07T10:11:40;22.79;60.27
67157;SHT31;54086;50.126;8.710;2023-05-07T10:14:06;23.07;59.67
67157;SHT31;54086;50.126;8.710;2023-05-07T10:16:34;22.58;60.57
67157;SHT31;54086;50.126;8.710;2023-05-07T10:19:05;22.45;60.62
67157;SHT31;54086;50.126;8.710;2023-05-07T10:21:35;23.16;59.11
67157;SHT31;54086;50.126;8.710;2023-05-07T10:24:05;23.74;57.66
67157;SHT31;54086;50.126;8.710;2023-05-07T10:26:40;24.04;56.97
67157;SHT31;54086;50.126;8.710;2023-05-07T10:29:17;24.48;56.14
67157;SHT31;54086;50.126;8.710;2023-05-07T10:31:54;24.35;56.77
67157;SHT31;54086;50.126;8.710;2023-05-07T10:34:35;24.33;57.15
67157;SHT31;54086;50.126;8.710;2023-05-07T10:37:02;24.48;55.90
67157;SHT31;54086;50.126;8.710;2023-05-07T10:39:28;24.64;55.29
67157;SHT31;54086;50.126;8.710;2023-05-07T10:41:54;23.94;57.57
67157;SHT31;54086;50.126;8.710;2023-05-07T10:44:28;24.08;57.26
67157;SHT31;54086;50.126;8.710;2023-05-07T10:47:13;24.36;56.88
67157;SHT31;54086;50.126;8.710;2023-05-07T10:52:21;25.07;55.44
67157;SHT31;54086;50.126;8.710;2023-05-07T10:54:46;24.49;56.20
67157;SHT31;54086;50.126;8.710;2023-05-07T10:57:34;24.42;57.05
67157;SHT31;54086;50.126;8.710;2023-05-07T11:05:32;23.81;57.18
67157;SHT31;54086;50.126;8.710;2023-05-07T11:08:02;23.30;57.87
67157;SHT31;54086;50.126;8.710;2023-05-07T11:10:55;23.44;56.94
67157;SHT31;54086;50.126;8.710;2023-05-07T11:13:41;23.44;58.61
67157;SHT31;54086;50.126;8.710;2023-05-07T11:16:19;23.93;56.91
67157;SHT31;54086;50.126;8.710;2023-05-07T11:18:51;24.00;56.67
67157;SHT31;54086;50.126;8.710;2023-05-07T11:21:49;23.94;57.06
67157;SHT31;54086;50.126;8.710;2023-05-07T11:24:15;24.42;56.45
67157;SHT31;54086;50.126;8.710;2023-05-07T11:26:49;24.06;54.91
67157;SHT31;54086;50.126;8.710;2023-05-07T11:29:21;23.97;54.97
67157;SHT31;54086;50.126;8.710;2023-05-07T11:31:56;24.98;54.53
67157;SHT31;54086;50.126;8.710;2023-05-07T11:34:24;25.66;51.90
67157;SHT31;54086;50.126;8.710;2023-05-07T11:36:51;25.25;51.80
67157;SHT31;54086;50.126;8.710;2023-05-07T11:39:27;25.85;49.98
67157;SHT31;54086;50.126;8.710;2023-05-07T11:41:53;26.09;50.00
67157;SHT31;54086;50.126;8.710;2023-05-07T11:44:18;26.47;49.37
67157;SHT31;54086;50.126;8.710;2023-05-07T11:46:44;26.14;49.69
67157;SHT31;54086;50.126;8.710;2023-05-07T11:49:10;25.75;50.01
67157;SHT31;54086;50.126;8.710;2023-05-07T11:51:35;26.13;49.77
67157;SHT31;54086;50.126;8.710;2023-05-07T11:54:03;26.19;49.46
67157;SHT31;54086;50.126;8.710;2023-05-07T11:56:34;26.04;49.22
67157;SHT31;54086;50.126;8.710;2023-05-07T11:59:00;25.59;49.02
67157;SHT31;54086;50.126;8.710;2023-05-07T12:01:27;24.93;50.05
67157;SHT31;54086;50.126;8.710;2023-05-07T12:03:52;25.32;49.98
67157;SHT31;54086;50.126;8.710;2023-05-07T12:06:18;25.58;50.35
67157;SHT31;54086;50.126;8.710;2023-05-07T12:08:54;25.71;49.00
67157;SHT31;54086;50.126;8.710;2023-05-07T12:11:24;25.11;48.97
67157;SHT31;54086;50.126;8.710;2023-05-07T12:13:54;25.14;49.07
67157;SHT31;54086;50.126;8.710;2023-05-07T12:16:20;25.68;47.43
67157;SHT31;54086;50.126;8.710;2023-05-07T12:18:47;25.58;48.03
67157;SHT31;54086;50.126;8.710;2023-05-07T12:21:13;25.68;46.79
67157;SHT31;54086;50.126;8.710;2023-05-07T12:23:39;26.37;46.45
67157;SHT31;54086;50.126;8.710;2023-05-07T12:26:05;26.62;46.89
67157;SHT31;54086;50.126;8.710;2023-05-07T12:28:36;26.77;47.24
67157;SHT31;54086;50.126;8.710;2023-05-07T12:31:02;26.87;46.69
67157;SHT31;54086;50.126;8.710;2023-05-07T12:33:28;26.37;47.48
67157;SHT31;54086;50.126;8.710;2023-05-07T12:35:56;26.36;47.21
67157;SHT31;54086;50.126;8.710;2023-05-07T12:38:22;26.19;48.03
67157;SHT31;54086;50.126;8.710;2023-05-07T12:40:49;26.29;48.13
67157;SHT31;54086;50.126;8.710;2023-05-07T12:43:20;26.61;47.85
67157;SHT31;54086;50.126;8.710;2023-05-07T12:45:50;26.45;48.32
67157;SHT31;54086;50.126;8.710;2023-05-07T12:48:15;25.58;49.56
67157;SHT31;54086;50.126;8.710;2023-05-07T12:50:41;25.94;49.51
67157;SHT31;54086;50.126;8.710;2023-05-07T12:53:10;26.03;48.91
67157;SHT31;54086;50.126;8.710;2023-05-07T12:55:48;26.04;49.31
67157;SHT31;54086;50.126;8.710;2023-05-07T12:58:27;25.57;49.25
67157;SHT31;54086;50.126;8.710;2023-05-07T13:00:55;25.97;48.43
67157;SHT31;54086;50.126;8.710;2023-05-07T13:03:27;25.97;48.73
67157;SHT31;54086;50.126;8.710;2023-05-07T13:05:57;25.34;49.68
67157;SHT31;54086;50.126;8.710;2023-05-07T13:08:31;25.94;48.09
67157;SHT31;54086;50.126;8.710;2023-05-07T13:11:00;25.27;48.43
67157;SHT31;54086;50.126;8.710;2023-05-07T13:13:32;25.90;48.51
67157;SHT31;54086;50.126;8.710;2023-05-07T13:15:59;26.74;47.39
67157;SHT31;54086;50.126;8.710;2023-05-07T13:18:25;26.81;48.35
67157;SHT31;54086;50.126;8.710;2023-05-07T13:20:51;26.88;49.60
67157;SHT31;54086;50.126;8.710;2023-05-07T13:23:17;26.51;50.93
67157;SHT31;54086;50.126;8.710;2023-05-07T13:25:43;27.15;49.79
67157;SHT31;54086;50.126;8.710;2023-05-07T13:28:08;26.13;51.41
67157;SHT31;54086;50.126;8.710;2023-05-07T13:30:34;26.57;50.34
67157;SHT31;54086;50.126;8.710;2023-05-07T13:33:00;26.65;50.65
67157;SHT31;54086;50.126;8.710;2023-05-07T13:35:26;26.31;50.83
67157;SHT31;54086;50.126;8.710;2023-05-07T13:37:51;26.29;50.55
67157;SHT31;54086;50.126;8.710;2023-05-07T13:40:17;26.12;50.99
67157;SHT31;54086;50.126;8.710;2023-05-07T13:42:44;26.14;50.25
67157;SHT31;54086;50.126;8.710;2023-05-07T13:45:11;26.77;48.16
67157;SHT31;54086;50.126;8.710;2023-05-07T13:47:40;27.53;46.68
67157;SHT31;54086;50.126;8.710;2023-05-07T13:50:07;27.45;46.86
67157;SHT31;54086;50.126;8.710;2023-05-07T13:52:32;26.64;48.34
67157;SHT31;54086;50.126;8.710;2023-05-07T13:54:58;26.06;49.03
67157;SHT31;54086;50.126;8.710;2023-05-07T13:57:24;27.03;47.71
67157;SHT31;54086;50.126;8.710;2023-05-07T13:59:50;27.12;46.65
67157;SHT31;54086;50.126;8.710;2023-05-07T14:02:15;27.76;45.42
67157;SHT31;54086;50.126;8.710;2023-05-07T14:04:41;27.70;45.74
67157;SHT31;54086;50.126;8.710;2023-05-07T14:07:06;27.28;46.96
67157;SHT31;54086;50.126;8.710;2023-05-07T14:09:32;27.08;47.42
67157;SHT31;54086;50.126;8.710;2023-05-07T14:11:58;26.52;47.79
67157;SHT31;54086;50.126;8.710;2023-05-07T14:14:23;26.24;48.62
67157;SHT31;54086;50.126;8.710;2023-05-07T14:16:49;25.61;49.29
67157;SHT31;54086;50.126;8.710;2023-05-07T14:19:14;25.37;50.41
67157;SHT31;54086;50.126;8.710;2023-05-07T14:21:40;25.24;51.39
67157;SHT31;54086;50.126;8.710;2023-05-07T14:24:07;25.30;51.38
67157;SHT31;54086;50.126;8.710;2023-05-07T14:26:33;25.13;52.20
67157;SHT31;54086;50.126;8.710;2023-05-07T14:29:00;25.14;52.06
67157;SHT31;54086;50.126;8.710;2023-05-07T14:31:26;24.87;52.50
67157;SHT31;54086;50.126;8.710;2023-05-07T14:33:51;24.63;52.51
67157;SHT31;54086;50.126;8.710;2023-05-07T14:36:19;24.77;52.70
67157;SHT31;54086;50.126;8.710;2023-05-07T14:38:46;24.80;52.79
67157;SHT31;54086;50.126;8.710;2023-05-07T14:41:12;24.76;52.83
67157;SHT31;54086;50.126;8.710;2023-05-07T14:43:37;24.45;52.99
67157;SHT31;54086;50.126;8.710;2023-05-07T14:46:03;24.45;53.51
67157;SHT31;54086;50.126;8.710;2023-05-07T14:48:28;24.57;53.24
67157;SHT31;54086;50.126;8.710;2023-05-07T14:50:54;24.36;53.35
67157;SHT31;54086;50.126;8.710;2023-05-07T14:53:20;24.70;52.77
67157;SHT31;54086;50.126;8.710;2023-05-07T14:55:47;24.72;53.01
67157;SHT31;54086;50.126;8.710;2023-05-07T14:58:12;24.67;53.42
67157;SHT31;54086;50.126;8.710;2023-05-07T15:00:38;24.52;53.75
67157;SHT31;54086;50.126;8.710;2023-05-07T15:03:09;24.48;53.55
67157;SHT31;54086;50.126;8.710;2023-05-07T15:05:35;24.55;53.42
67157;SHT31;54086;50.126;8.710;2023-05-07T15:08:02;24.40;53.49
67157;SHT31;54086;50.126;8.710;2023-05-07T15:10:29;24.36;53.51
67157;SHT31;54086;50.126;8.710;2023-05-07T15:12:56;24.26;53.52
67157;SHT31;54086;50.126;8.710;2023-05-07T15:15:22;24.18;53.66
67157;SHT31;54086;50.126;8.710;2023-05-07T15:17:47;24.33;53.67
67157;SHT31;54086;50.126;8.710;2023-05-07T15:20:13;24.25;53.43
67157;SHT31;54086;50.126;8.710;2023-05-07T15:22:40;24.15;53.01
67157;SHT31;54086;50.126;8.710;2023-05-07T15:25:07;24.15;52.96
67157;SHT31;54086;50.126;8.710;2023-05-07T15:27:38;23.89;53.42
67157;SHT31;54086;50.126;8.710;2023-05-07T15:30:06;23.84;53.61
67157;SHT31;54086;50.126;8.710;2023-05-07T15:32:32;23.79;53.24
67157;SHT31;54086;50.126;8.710;2023-05-07T15:34:58;23.81;53.68
67157;SHT31;54086;50.126;8.710;2023-05-07T15:37:23;23.73;53.29